Trout Dale, Virginia
Current Conditions -  °F | °C
As of 2:55 PM on Monday 24 Nov 2014 (Local Time) from KMKJ Reporting Station
Clear Clear  
Wind Chill: 69°   Ceiling: Unl
Heat Index: 69°   Visibility: 10mi
Dew Point: 39°   Wind: 20mph
Humidity: 33%   Direction: 270°W
Pressure: 29.73"   Gusts: 38mph
Location:  36.6855°N, 81.435°W
Report Text: KMKJ 241955Z AUTO 27017G33KT 10SM CLR 21/04 A2973 RMK AO2 LTG DSNT W T02050038
Loading
Personal Weather Stations






























Interactive Weather Map New forecast layout! Learn more

10-Day Weather Forecast

Advertisements
Track Severe Weather on mobile